Williana, Louisiana
Current Conditions -  °F | °C
As of 10:53 PM on Saturday 22 Nov 2014 (Local Time) from KAEX Reporting Station
Light Rain Light Rain  
Wind Chill: 63°   Ceiling: 1300
Heat Index: 63°   Visibility: 8mi
Dew Point: 61°   Wind: 12mph
Humidity: 93%   Direction: 130°SE
Pressure: 29.84"   Gusts: NA
Location:  31.6531°N, 92.5571°W
Report Text: KAEX 230453Z 13010KT 8SM -RA OVC013 17/16 A2984 RMK AO2 SLP107 P0001 T01720161
Loading
Personal Weather Stations






























Interactive Weather Map New forecast layout! Learn more

10-Day Weather Forecast

Advertisements
Track Severe Weather on mobile